Kuurne, Belgium

4:44 PM CEST on August 03, 2015 (GMT +0200)
Lesquin | | Change Station
CLOSE
Current Station
Airport
Location: Lille,
Elevation: 154 ft
Nearby Weather Stations

Elev 154 ft 50.57 °N, 3.10 °E | Updated 14 minutes ago

Clear
Clear
84 °F
Feels Like 84 °F
N
6
Wind Variable Wind from SW

Today
High -- | Low -- °F
--% Chance of Precip.
Yesterday
High -- | Low -- °F
Precip. -- in
6:15 AM 9:29 PM
Waning Gibbous, 86% visible
Pressure 29.92 in
Visibility -9999.0 miles
Clouds
Dew Point 48 °F
Humidity 29%
Rainfall 0.00 in
Snow Depth Not available.
UV Not available.
Pollen Not available.
Air Quality Not available.
Flu Activity Not available.
METAR LFQQ 031430Z AUTO 23005KT 180V280 CAVOK 29/09 Q1013

More Conditions Fewer Conditions

Pressure 29.92 in
Visibility -9999.0 miles
Clouds
Dew Point 48 °F
Humidity 29%
Rainfall 0.00 in
Snow Depth Not available.
UV Not available.
Pollen Not available.
Air Quality Not available.
Flu Activity Not available.
METAR LFQQ 031430Z AUTO 23005KT 180V280 CAVOK 29/09 Q1013

More Conditions Fewer Conditions

10-Day Weather Forecast

×

Almanac

Astronomy

Aug. 03, 2015 Rise Set
Actual Time
Civil Twilight
Nautical Twilight
Astronomical Twilight
Moon
Length of Visible Light
Length of Day
Tomorrow will be .
, % of the Moon is Illuminated

Today's Extremes

Country Highs Country Lows

Community

WunderPhotos

Upload Photos

1,843,639 photos uploaded!

WunderBlogs® & News

Nearby

Air Quality

  Air Quality AQ Index Pollutant
Not available.

Snow Depth

Station Depth Elevation

Earthquake Activity

City Distance Mag. Time & Date
Minimum magnitude displayed is 2.5.

Coastal Water Temperatures

Place Temperature

Stations

Nearby Weather Stations

Station Location Temp. Windchill Dew Point Humidity Wind Precip. Elev Updated Type